Time;durP1;ratioP1;P1;durP2;ratioP2;P2;SDS_P1;SDS_P2;PMS_P1;PMS_P2;Temp;Humidity;BMP_temperature;BMP_pressure;BME280_temperature;BME280_humidity;BME280_pressure;Samples;Min_cycle;Max_cycle;Signal;HPM_P1;HPM_P2
2022/07/08 00:01:08;;;;;;;;;;;18.50;99.90;;;;;;5033673;28;19971;-73
2022/07/08 00:03:33;;;;;;;;;;;18.50;99.90;;;;;;5051499;28;19916;-73
2022/07/08 00:05:59;;;;;;;;;;;18.60;99.90;;;;;;5051764;28;19917;-73
2022/07/08 00:08:26;;;;;;;;;;;18.50;99.90;;;;;;5033489;28;19931;-72
2022/07/08 00:10:52;;;;;;;;;;;18.50;99.90;;;;;;5033463;28;20423;-73
2022/07/08 00:13:17;;;;;;;;;;;18.50;99.90;;;;;;5033292;28;19999;-72
2022/07/08 00:15:43;;;;;;;;;;;18.50;99.90;;;;;;5051420;28;20016;-73
2022/07/08 00:18:08;;;;;;;;;;;18.60;99.90;;;;;;5051110;28;20357;-72
2022/07/08 00:20:34;;;;;;;;;;;18.60;99.90;;;;;;5051258;28;19939;-73
2022/07/08 00:22:59;;;;;;;;;;;18.60;99.90;;;;;;5033055;28;19916;-73
2022/07/08 00:25:25;;;;;;;;;;;18.60;99.90;;;;;;5051217;28;19924;-74
2022/07/08 00:27:50;;;;;;;;;;;18.60;99.90;;;;;;5033155;28;19913;-73
2022/07/08 00:30:16;;;;;;;;;;;18.70;99.90;;;;;;5051315;28;19967;-73
2022/07/08 00:32:41;;;;;;;;;;;18.70;99.90;;;;;;5032939;28;19909;-73
2022/07/08 00:35:07;;;;;;;;;;;18.70;99.90;;;;;;5050759;28;20323;-73
2022/07/08 00:37:32;;;;;;;;;;;18.70;99.90;;;;;;5050483;28;19925;-73
2022/07/08 00:39:58;;;;;;;;;;;18.80;99.90;;;;;;5032839;28;20015;-73
2022/07/08 00:42:24;;;;;;;;;;;18.80;99.90;;;;;;5050613;28;20368;-73
2022/07/08 00:44:49;;;;;;;;;;;18.70;99.90;;;;;;5032665;28;19923;-73
2022/07/08 00:47:15;;;;;;;;;;;18.90;99.90;;;;;;5032569;28;19908;-74
2022/07/08 00:49:41;;;;;;;;;;;18.90;99.90;;;;;;5032599;28;19917;-73
2022/07/08 00:52:07;;;;;;;;;;;18.90;99.90;;;;;;5032457;28;20369;-73
2022/07/08 00:54:32;;;;;;;;;;;18.90;99.90;;;;;;5032590;28;19913;-72
2022/07/08 00:56:58;;;;;;;;;;;18.90;99.90;;;;;;5050470;28;19944;-73
2022/07/08 00:59:24;;;;;;;;;;;18.90;99.90;;;;;;5032387;28;19908;-73
2022/07/08 01:01:50;;;;;;;;;;;19.00;99.90;;;;;;5050869;28;19912;-72
2022/07/08 01:04:15;;;;;;;;;;;19.00;99.90;;;;;;5050806;28;19913;-73
2022/07/08 01:06:41;;;;;;;;;;;19.10;99.90;;;;;;5032258;28;20380;-73
2022/07/08 01:09:07;;;;;;;;;;;19.00;99.90;;;;;;5032400;28;20015;-73
2022/07/08 01:11:33;;;;;;;;;;;19.10;99.90;;;;;;5032200;28;20327;-73
2022/07/08 01:13:58;;;;;;;;;;;19.10;99.90;;;;;;5050319;28;19958;-73
2022/07/08 01:16:24;;;;;;;;;;;19.10;99.90;;;;;;5050636;28;19917;-73
2022/07/08 01:18:49;;;;;;;;;;;19.20;99.90;;;;;;5050363;28;19971;-73
2022/07/08 01:21:15;;;;;;;;;;;19.20;99.90;;;;;;5050558;28;20320;-73
2022/07/08 01:23:40;;;;;;;;;;;19.20;99.90;;;;;;5032355;28;19909;-72
2022/07/08 01:26:10;;;;;;;;;;;19.20;99.90;;;;;;5050564;28;19939;-72
2022/07/08 01:28:36;;;;;;;;;;;19.20;99.90;;;;;;5050330;28;19917;-73
2022/07/08 01:31:02;;;;;;;;;;;19.20;99.90;;;;;;5050469;28;19983;-73
2022/07/08 01:33:28;;;;;;;;;;;19.20;99.90;;;;;;5050098;28;19913;-73
2022/07/08 01:35:53;;;;;;;;;;;19.20;99.90;;;;;;5050366;28;20391;-72
2022/07/08 01:38:19;;;;;;;;;;;19.20;99.90;;;;;;5049639;28;19971;-73
2022/07/08 01:40:44;;;;;;;;;;;19.20;99.90;;;;;;5050206;28;20312;-73
2022/07/08 01:43:10;;;;;;;;;;;19.20;99.90;;;;;;5050074;28;20011;-73
2022/07/08 01:45:35;;;;;;;;;;;19.20;99.90;;;;;;5032240;28;19912;-72
2022/07/08 01:48:01;;;;;;;;;;;19.10;99.90;;;;;;5050009;28;19920;-72
2022/07/08 01:50:26;;;;;;;;;;;19.10;99.90;;;;;;5050239;28;19917;-72
2022/07/08 01:52:52;;;;;;;;;;;19.10;99.90;;;;;;5050267;28;19923;-72
2022/07/08 01:55:17;;;;;;;;;;;19.00;99.90;;;;;;5050187;28;19913;-73
2022/07/08 01:57:43;;;;;;;;;;;19.00;99.90;;;;;;5049851;28;19912;-72
2022/07/08 02:00:09;;;;;;;;;;;19.00;99.90;;;;;;5050029;28;20000;-72
2022/07/08 02:02:34;;;;;;;;;;;19.00;99.90;;;;;;5031743;28;19924;-72
2022/07/08 02:05:00;;;;;;;;;;;19.10;99.90;;;;;;5052381;28;20432;-72
2022/07/08 02:07:25;;;;;;;;;;;19.00;99.90;;;;;;5053414;28;19928;-73
2022/07/08 02:09:51;;;;;;;;;;;19.00;99.90;;;;;;5053649;28;19913;-73
2022/07/08 02:12:19;;;;;;;;;;;19.10;99.90;;;;;;5053325;28;20340;-73
2022/07/08 02:14:45;;;;;;;;;;;19.10;99.90;;;;;;5053473;28;20360;-72
2022/07/08 02:17:10;;;;;;;;;;;19.00;99.90;;;;;;5053418;28;19917;-73
2022/07/08 02:19:36;;;;;;;;;;;19.00;99.90;;;;;;5053469;28;20229;-73
2022/07/08 02:22:02;;;;;;;;;;;19.00;99.90;;;;;;5035496;28;19927;-73
2022/07/08 02:24:27;;;;;;;;;;;19.10;99.90;;;;;;5035198;28;20345;-72
2022/07/08 02:26:53;;;;;;;;;;;19.10;99.90;;;;;;5053498;28;19920;-73
2022/07/08 02:29:18;;;;;;;;;;;19.00;99.90;;;;;;5058660;28;19909;-73
2022/07/08 02:31:44;;;;;;;;;;;19.00;99.90;;;;;;5038614;28;19971;-73
2022/07/08 02:34:09;;;;;;;;;;;17.90;99.90;;;;;;5052947;28;19916;-73
2022/07/08 02:36:35;;;;;;;;;;;18.90;99.90;;;;;;5053117;28;19916;-73
2022/07/08 02:39:00;;;;;;;;;;;18.90;99.90;;;;;;5034871;28;19969;-73
2022/07/08 02:41:26;;;;;;;;;;;18.90;99.90;;;;;;5035318;28;19982;-73
2022/07/08 02:43:51;;;;;;;;;;;18.80;99.90;;;;;;5052921;28;19908;-72
2022/07/08 02:46:17;;;;;;;;;;;18.80;99.90;;;;;;5052954;28;19946;-72
2022/07/08 02:48:42;;;;;;;;;;;18.80;99.90;;;;;;5053140;28;19927;-72
2022/07/08 02:51:08;;;;;;;;;;;18.70;99.90;;;;;;5035173;28;20403;-73
2022/07/08 02:53:33;;;;;;;;;;;18.60;99.90;;;;;;5052760;28;19999;-72
2022/07/08 02:55:59;;;;;;;;;;;18.80;99.90;;;;;;5053269;28;20006;-73
2022/07/08 02:58:24;;;;;;;;;;;18.70;99.90;;;;;;5052692;28;19981;-73
2022/07/08 03:00:50;;;;;;;;;;;18.80;99.90;;;;;;5053108;28;19924;-74
2022/07/08 03:03:15;;;;;;;;;;;18.80;99.90;;;;;;5052683;28;20356;-73
2022/07/08 03:05:41;;;;;;;;;;;18.70;99.90;;;;;;5052883;28;19917;-73
2022/07/08 03:08:06;;;;;;;;;;;18.80;99.90;;;;;;5052557;28;19909;-73
2022/07/08 03:10:32;;;;;;;;;;;18.80;99.90;;;;;;5052773;28;20039;-73
2022/07/08 03:12:58;;;;;;;;;;;18.80;99.90;;;;;;5052734;28;20357;-73
2022/07/08 03:15:24;;;;;;;;;;;18.80;99.90;;;;;;5051211;28;19968;-73
2022/07/08 03:17:50;;;;;;;;;;;18.80;99.90;;;;;;5052926;28;19947;-74
2022/07/08 03:20:15;;;;;;;;;;;18.80;99.90;;;;;;5052477;28;20014;-73
2022/07/08 03:22:41;;;;;;;;;;;18.70;99.90;;;;;;5052366;28;19976;-73
2022/07/08 03:25:07;;;;;;;;;;;18.70;99.90;;;;;;5034241;28;19923;-73
2022/07/08 03:27:32;;;;;;;;;;;18.70;99.90;;;;;;5034348;28;19919;-73
2022/07/08 03:29:58;;;;;;;;;;;18.70;99.90;;;;;;5052268;28;19917;-73
2022/07/08 03:32:23;;;;;;;;;;;18.80;99.90;;;;;;5052225;28;19955;-72
2022/07/08 03:34:49;;;;;;;;;;;18.80;99.90;;;;;;5034136;28;20356;-73
2022/07/08 03:37:14;;;;;;;;;;;18.80;99.90;;;;;;5052065;28;19909;-73
2022/07/08 03:39:40;;;;;;;;;;;18.90;99.90;;;;;;5051939;28;19936;-73
2022/07/08 03:42:06;;;;;;;;;;;18.90;99.90;;;;;;5052026;28;19947;-74
2022/07/08 03:44:31;;;;;;;;;;;18.90;99.90;;;;;;5051917;28;19951;-73
2022/07/08 03:46:56;;;;;;;;;;;18.80;99.90;;;;;;5051981;28;19959;-73
2022/07/08 03:49:22;;;;;;;;;;;18.90;99.90;;;;;;5051625;28;19936;-73
2022/07/08 03:51:48;;;;;;;;;;;18.70;99.90;;;;;;5051755;28;19913;-73
2022/07/08 03:54:13;;;;;;;;;;;18.90;99.90;;;;;;5051616;28;19909;-73
2022/07/08 03:56:38;;;;;;;;;;;18.80;99.90;;;;;;5052156;28;19917;-74
2022/07/08 03:59:04;;;;;;;;;;;18.60;99.90;;;;;;5033499;28;19915;-73
2022/07/08 04:01:29;;;;;;;;;;;18.80;99.90;;;;;;5052167;28;20273;-73
2022/07/08 04:03:55;;;;;;;;;;;18.70;99.90;;;;;;5051388;28;19912;-74
2022/07/08 04:06:20;;;;;;;;;;;18.70;99.90;;;;;;5033576;28;19956;-74
2022/07/08 04:08:46;;;;;;;;;;;18.70;99.90;;;;;;5051336;28;19912;-73
2022/07/08 04:11:11;;;;;;;;;;;18.80;99.90;;;;;;5051653;28;20070;-73
2022/07/08 04:13:40;;;;;;;;;;;18.80;99.90;;;;;;5051221;28;20000;-73
2022/07/08 04:16:10;;;;;;;;;;;18.90;99.90;;;;;;5033333;28;19916;-73
2022/07/08 04:18:36;;;;;;;;;;;18.90;99.90;;;;;;5051100;28;20356;-72
2022/07/08 04:21:02;;;;;;;;;;;18.90;99.90;;;;;;5051017;28;19966;-73
2022/07/08 04:23:27;;;;;;;;;;;18.90;99.90;;;;;;5050994;28;19909;-73
2022/07/08 04:25:53;;;;;;;;;;;18.90;99.90;;;;;;5051270;28;20369;-74
2022/07/08 04:28:18;;;;;;;;;;;18.90;99.90;;;;;;5032689;28;19916;-74
2022/07/08 04:30:44;;;;;;;;;;;18.90;99.90;;;;;;5033062;28;20253;-72
2022/07/08 04:33:10;;;;;;;;;;;18.90;99.90;;;;;;5051036;28;20422;-72
2022/07/08 04:35:36;;;;;;;;;;;18.80;99.90;;;;;;5051044;28;19916;-73
2022/07/08 04:38:02;;;;;;;;;;;18.90;99.90;;;;;;5050959;28;19909;-74
2022/07/08 04:40:28;;;;;;;;;;;18.90;99.90;;;;;;5051093;28;19929;-74
2022/07/08 04:42:53;;;;;;;;;;;18.90;99.90;;;;;;5050876;28;20294;-73
2022/07/08 04:45:19;;;;;;;;;;;18.90;99.90;;;;;;5050843;28;19917;-73
2022/07/08 04:47:46;;;;;;;;;;;18.90;99.90;;;;;;5051036;28;19913;-73
2022/07/08 04:50:11;;;;;;;;;;;18.80;99.90;;;;;;5050581;28;19925;-73
2022/07/08 04:52:37;;;;;;;;;;;18.80;99.90;;;;;;5050448;28;19916;-73
2022/07/08 04:55:02;;;;;;;;;;;18.80;99.90;;;;;;5032386;28;19958;-73
2022/07/08 04:57:32;;;;;;;;;;;18.80;99.90;;;;;;5050425;28;19909;-73
2022/07/08 04:59:59;;;;;;;;;;;18.80;99.90;;;;;;5032404;28;20015;-74
2022/07/08 05:02:24;;;;;;;;;;;18.80;99.90;;;;;;5032467;28;19913;-74
2022/07/08 05:04:50;;;;;;;;;;;18.90;99.90;;;;;;5032307;28;20016;-73
2022/07/08 05:07:16;;;;;;;;;;;18.90;99.90;;;;;;5032255;28;19915;-73
2022/07/08 05:09:41;;;;;;;;;;;18.80;99.90;;;;;;5050346;28;19924;-73
2022/07/08 05:12:07;;;;;;;;;;;18.90;99.90;;;;;;5050526;28;19978;-73
2022/07/08 05:14:32;;;;;;;;;;;19.00;99.90;;;;;;5050602;28;19975;-74
2022/07/08 05:16:58;;;;;;;;;;;19.00;99.90;;;;;;5050254;28;19913;-73
2022/07/08 05:19:23;;;;;;;;;;;18.20;99.90;;;;;;5050109;28;19912;-73
2022/07/08 05:21:49;;;;;;;;;;;19.10;99.90;;;;;;5050354;28;19917;-73
2022/07/08 05:24:14;;;;;;;;;;;19.20;99.90;;;;;;5050084;28;19908;-73
2022/07/08 05:26:40;;;;;;;;;;;19.10;99.90;;;;;;5050184;28;19921;-73
2022/07/08 05:29:05;;;;;;;;;;;19.20;99.90;;;;;;5050398;28;20313;-73
2022/07/08 05:31:31;;;;;;;;;;;19.20;99.90;;;;;;5050532;28;19921;-74
2022/07/08 05:33:56;;;;;;;;;;;19.20;99.90;;;;;;5050320;28;19913;-74
2022/07/08 05:36:22;;;;;;;;;;;19.20;99.90;;;;;;5032208;28;19917;-73
2022/07/08 05:38:47;;;;;;;;;;;19.30;99.90;;;;;;5051160;28;20005;-73
2022/07/08 05:41:13;;;;;;;;;;;19.30;99.90;;;;;;5053928;28;19928;-73
2022/07/08 05:43:39;;;;;;;;;;;19.30;99.90;;;;;;5053977;28;20020;-73
2022/07/08 05:46:04;;;;;;;;;;;19.30;99.90;;;;;;5054021;28;19917;-74
2022/07/08 05:48:29;;;;;;;;;;;19.20;99.90;;;;;;5036018;28;20277;-74
2022/07/08 05:50:55;;;;;;;;;;;19.20;99.90;;;;;;5054532;28;20436;-74
2022/07/08 05:53:20;;;;;;;;;;;19.10;99.90;;;;;;5035828;28;19912;-73
2022/07/08 05:55:46;;;;;;;;;;;19.20;99.90;;;;;;5054388;28;19917;-73
2022/07/08 05:58:11;;;;;;;;;;;19.20;99.90;;;;;;5053821;28;20420;-73
2022/07/08 06:00:37;;;;;;;;;;;19.20;99.90;;;;;;5035984;28;20158;-73
2022/07/08 06:03:04;;;;;;;;;;;19.10;99.90;;;;;;5035810;28;19916;-73
2022/07/08 06:05:31;;;;;;;;;;;19.10;99.90;;;;;;5053512;28;19920;-73
2022/07/08 06:07:56;;;;;;;;;;;19.10;99.90;;;;;;5053955;28;20467;-73
2022/07/08 06:10:22;;;;;;;;;;;19.10;99.90;;;;;;5035700;28;19917;-74
2022/07/08 06:12:47;;;;;;;;;;;18.90;99.90;;;;;;5053399;28;20262;-73
2022/07/08 06:15:14;;;;;;;;;;;18.90;99.90;;;;;;5035607;28;19921;-74
2022/07/08 06:17:40;;;;;;;;;;;18.90;99.90;;;;;;5035507;28;19920;-73
2022/07/08 06:20:06;;;;;;;;;;;18.80;99.90;;;;;;5035470;28;20288;-72
2022/07/08 06:22:33;;;;;;;;;;;18.70;99.90;;;;;;5053249;28;20365;-73
2022/07/08 06:24:59;;;;;;;;;;;18.60;99.90;;;;;;5053404;28;19944;-74
2022/07/08 06:27:25;;;;;;;;;;;18.60;99.90;;;;;;5052999;28;19908;-73
2022/07/08 06:29:50;;;;;;;;;;;18.50;99.90;;;;;;5053330;28;20035;-73
2022/07/08 06:32:16;;;;;;;;;;;18.40;99.90;;;;;;5053450;28;20602;-73
2022/07/08 06:34:41;;;;;;;;;;;18.40;99.90;;;;;;5053167;28;20280;-73
2022/07/08 06:37:07;;;;;;;;;;;18.40;99.90;;;;;;5053053;28;19967;-73
2022/07/08 06:39:32;;;;;;;;;;;18.40;99.90;;;;;;5052869;28;19935;-73
2022/07/08 06:41:58;;;;;;;;;;;18.40;99.90;;;;;;5052990;28;19912;-74
2022/07/08 06:44:23;;;;;;;;;;;18.40;99.90;;;;;;5053090;28;19909;-74
2022/07/08 06:46:49;;;;;;;;;;;18.40;99.90;;;;;;5052941;28;20107;-73
2022/07/08 06:49:14;;;;;;;;;;;18.40;99.90;;;;;;5052675;28;19909;-73
2022/07/08 06:51:40;;;;;;;;;;;18.40;99.90;;;;;;5034878;28;19947;-73
2022/07/08 06:56:50;;;;;;;;;;;18.40;99.90;;;;;;5052957;28;20377;-72
2022/07/08 06:59:15;;;;;;;;;;;18.30;99.90;;;;;;5052516;28;19909;-72
2022/07/08 07:01:41;;;;;;;;;;;18.30;99.90;;;;;;5034803;28;19966;-73
2022/07/08 07:04:07;;;;;;;;;;;18.30;99.90;;;;;;5052633;28;19913;-73
2022/07/08 07:06:33;;;;;;;;;;;18.30;99.90;;;;;;5034457;28;19932;-73
2022/07/08 07:08:58;;;;;;;;;;;18.30;99.90;;;;;;5052737;28;19913;-73
2022/07/08 07:11:24;;;;;;;;;;;18.40;99.90;;;;;;5053041;28;20320;-74
2022/07/08 07:13:49;;;;;;;;;;;18.50;99.90;;;;;;5034884;28;20208;-73
2022/07/08 07:16:15;;;;;;;;;;;18.60;99.90;;;;;;5034769;28;19913;-73
2022/07/08 07:18:40;;;;;;;;;;;18.60;99.90;;;;;;5034283;28;19936;-73
2022/07/08 07:21:06;;;;;;;;;;;18.70;99.90;;;;;;5052556;28;19916;-73
2022/07/08 07:23:31;;;;;;;;;;;18.60;99.90;;;;;;5052247;28;19920;-74
2022/07/08 07:25:57;;;;;;;;;;;18.50;99.90;;;;;;5034353;28;20394;-73
2022/07/08 07:28:23;;;;;;;;;;;18.40;99.90;;;;;;5052016;28;19927;-73
2022/07/08 07:30:49;;;;;;;;;;;18.30;99.90;;;;;;5052813;28;20011;-73
2022/07/08 07:33:14;;;;;;;;;;;18.30;99.90;;;;;;5051595;28;19987;-68
2022/07/08 07:35:40;;;;;;;;;;;18.40;99.90;;;;;;5051937;28;20341;-69
2022/07/08 07:38:05;;;;;;;;;;;18.30;99.90;;;;;;5051529;28;19923;-68
2022/07/08 07:40:31;;;;;;;;;;;18.30;99.90;;;;;;5051954;28;19932;-69
2022/07/08 07:42:56;;;;;;;;;;;18.40;99.90;;;;;;5052038;28;19909;-68
2022/07/08 07:45:21;;;;;;;;;;;18.40;99.90;;;;;;5051868;28;20255;-69
2022/07/08 07:47:47;;;;;;;;;;;18.50;99.90;;;;;;5051692;28;19909;-69
2022/07/08 07:50:12;;;;;;;;;;;18.50;99.90;;;;;;5052063;28;19920;-69
2022/07/08 07:52:38;;;;;;;;;;;18.50;99.90;;;;;;5051534;28;19912;-69
2022/07/08 07:55:05;;;;;;;;;;;18.60;99.90;;;;;;5051869;28;20384;-68
2022/07/08 07:57:30;;;;;;;;;;;18.50;99.90;;;;;;5051726;28;19909;-68
2022/07/08 07:59:56;;;;;;;;;;;18.60;99.90;;;;;;5051696;28;19943;-68
2022/07/08 08:02:21;;;;;;;;;;;18.60;99.90;;;;;;5050948;28;20369;-69
2022/07/08 08:04:47;;;;;;;;;;;18.60;99.90;;;;;;5051342;28;19921;-68
2022/07/08 08:07:12;;;;;;;;;;;18.70;99.90;;;;;;5033576;28;19913;-68
2022/07/08 08:09:38;;;;;;;;;;;18.80;99.90;;;;;;5051425;28;19909;-68
2022/07/08 08:12:04;;;;;;;;;;;18.80;99.90;;;;;;5051222;28;19939;-68
2022/07/08 08:14:29;;;;;;;;;;;18.80;99.90;;;;;;5051019;28;19932;-68
2022/07/08 08:16:54;;;;;;;;;;;18.80;99.90;;;;;;5051447;28;20365;-69
2022/07/08 08:19:20;;;;;;;;;;;18.90;99.90;;;;;;5050973;28;19924;-68
2022/07/08 08:21:45;;;;;;;;;;;18.90;99.90;;;;;;5051469;28;19913;-68
2022/07/08 08:24:11;;;;;;;;;;;18.90;99.90;;;;;;5051264;28;20304;-68
2022/07/08 08:26:37;;;;;;;;;;;19.10;99.90;;;;;;5051652;28;19921;-69
2022/07/08 08:29:02;;;;;;;;;;;19.20;99.90;;;;;;5051381;28;19909;-68
2022/07/08 08:31:28;;;;;;;;;;;19.40;99.90;;;;;;5033135;28;19920;-68
2022/07/08 08:33:54;;;;;;;;;;;19.40;99.90;;;;;;5051024;28;19908;-68
2022/07/08 08:36:19;;;;;;;;;;;19.40;99.90;;;;;;5051257;28;19916;-68
2022/07/08 08:38:46;;;;;;;;;;;19.40;99.90;;;;;;5050677;28;20335;-68
2022/07/08 08:41:12;;;;;;;;;;;19.50;99.90;;;;;;5051158;28;19928;-68
2022/07/08 08:43:38;;;;;;;;;;;19.50;99.90;;;;;;5050554;28;20363;-68
2022/07/08 08:46:04;;;;;;;;;;;19.50;99.90;;;;;;5050994;28;19928;-68
2022/07/08 08:48:34;;;;;;;;;;;19.50;99.90;;;;;;5050159;28;19908;-69
2022/07/08 08:51:02;;;;;;;;;;;19.50;99.90;;;;;;5050693;28;19925;-68
2022/07/08 08:53:30;;;;;;;;;;;19.50;99.90;;;;;;5050894;28;19908;-68
2022/07/08 08:55:56;;;;;;;;;;;19.60;99.90;;;;;;5051011;28;19963;-68
2022/07/08 08:58:22;;;;;;;;;;;19.60;99.90;;;;;;5050586;28;19909;-68
2022/07/08 09:00:48;;;;;;;;;;;19.70;99.90;;;;;;5050556;28;19943;-68
2022/07/08 09:03:13;;;;;;;;;;;19.70;99.90;;;;;;5050321;28;19994;-68
2022/07/08 09:05:39;;;;;;;;;;;19.80;99.90;;;;;;5050582;28;19927;-68
2022/07/08 09:08:04;;;;;;;;;;;19.80;99.90;;;;;;5049365;28;19921;-69
2022/07/08 09:10:30;;;;;;;;;;;19.80;99.90;;;;;;5050021;28;20361;-72
2022/07/08 09:13:12;;;;;;;;;;;19.90;99.90;;;;;;5049517;28;20014;-68
2022/07/08 09:15:45;;;;;;;;;;;20.00;99.90;;;;;;5050170;28;19983;-68
2022/07/08 09:18:12;;;;;;;;;;;20.00;99.90;;;;;;5050244;28;20451;-67
2022/07/08 09:20:38;;;;;;;;;;;20.20;99.90;;;;;;5050330;28;19917;-68
2022/07/08 09:23:03;;;;;;;;;;;20.20;99.90;;;;;;5049715;28;19959;-69
2022/07/08 09:25:30;;;;;;;;;;;20.30;99.90;;;;;;5050193;28;20264;-67
2022/07/08 09:27:58;;;;;;;;;;;20.30;99.90;;;;;;5050142;28;19908;-67
2022/07/08 09:30:27;;;;;;;;;;;20.40;99.90;;;;;;5049987;28;19971;-67
2022/07/08 09:32:57;;;;;;;;;;;20.40;99.90;;;;;;5050028;28;20308;-67
2022/07/08 09:35:29;;;;;;;;;;;20.50;99.90;;;;;;5050012;28;19982;-68
2022/07/08 09:37:55;;;;;;;;;;;20.50;99.90;;;;;;5050202;28;20360;-68
2022/07/08 09:40:20;;;;;;;;;;;20.50;99.90;;;;;;5049889;28;19936;-68
2022/07/08 09:42:46;;;;;;;;;;;20.50;99.90;;;;;;5050341;28;19916;-68
2022/07/08 09:45:12;;;;;;;;;;;20.70;99.90;;;;;;5049863;28;19933;-68
2022/07/08 09:47:37;;;;;;;;;;;20.90;99.90;;;;;;5049960;28;19909;-69
2022/07/08 09:50:03;;;;;;;;;;;21.10;99.90;;;;;;5049925;28;19925;-67
2022/07/08 09:52:28;;;;;;;;;;;21.30;99.90;;;;;;5049651;28;20280;-68
2022/07/08 09:55:03;;;;;;;;;;;21.60;99.90;;;;;;5049678;28;19999;-68
2022/07/08 09:57:29;;;;;;;;;;;21.80;99.90;;;;;;5049632;28;20430;-74
2022/07/08 09:59:55;;;;;;;;;;;22.00;99.90;;;;;;5031091;28;19917;-73
2022/07/08 10:02:21;;;;;;;;;;;22.00;99.90;;;;;;5030721;28;19909;-73
2022/07/08 10:04:48;;;;;;;;;;;22.40;99.90;;;;;;5049712;28;20511;-73
2022/07/08 10:07:14;;;;;;;;;;;22.90;99.90;;;;;;5049123;28;19916;-73
2022/07/08 10:09:39;;;;;;;;;;;23.50;99.90;;;;;;5049789;28;20661;-72
2022/07/08 10:12:06;;;;;;;;;;;23.80;99.90;;;;;;5050183;28;20387;-73
2022/07/08 10:14:31;;;;;;;;;;;24.30;99.90;;;;;;5015233;28;19936;-73
2022/07/08 10:16:58;;;;;;;;;;;24.60;99.90;;;;;;5050012;28;20275;-73
2022/07/08 10:19:31;;;;;;;;;;;24.80;99.90;;;;;;5048974;28;20369;-70
2022/07/08 10:21:58;;;;;;;;;;;25.00;99.90;;;;;;5048444;28;19970;-69
2022/07/08 10:24:28;;;;;;;;;;;25.10;99.90;;;;;;5058680;28;19937;-69
2022/07/08 10:26:57;;;;;;;;;;;25.20;99.90;;;;;;5054169;28;20342;-69
2022/07/08 10:29:33;;;;;;;;;;;25.20;99.90;;;;;;5056217;28;19992;-69
2022/07/08 10:31:59;;;;;;;;;;;25.40;99.90;;;;;;5052983;28;19920;-68
2022/07/08 10:34:29;;;;;;;;;;;25.60;99.90;;;;;;5055924;28;19916;-69
2022/07/08 10:36:54;;;;;;;;;;;25.60;99.90;;;;;;5049220;28;19916;-68
2022/07/08 10:39:27;;;;;;;;;;;25.70;99.90;;;;;;5052456;28;20426;-69
2022/07/08 10:42:03;;;;;;;;;;;25.80;99.90;;;;;;5052263;28;20231;-69
2022/07/08 10:44:46;;;;;;;;;;;26.20;99.90;;;;;;5052853;28;20294;-70
2022/07/08 10:47:38;;;;;;;;;;;26.60;99.90;;;;;;5052878;28;20474;-69
2022/07/08 10:50:07;;;;;;;;;;;26.90;99.90;;;;;;5032912;28;19920;-69
2022/07/08 10:52:40;;;;;;;;;;;27.20;99.90;;;;;;5052690;28;19921;-70
2022/07/08 10:55:10;;;;;;;;;;;27.00;99.90;;;;;;5052313;28;19962;-69
2022/07/08 10:57:35;;;;;;;;;;;26.60;99.90;;;;;;5039438;28;19917;-69
2022/07/08 11:00:13;;;;;;;;;;;26.40;99.90;;;;;;5072738;28;20090;-68
2022/07/08 11:02:43;;;;;;;;;;;26.10;99.90;;;;;;5059358;28;20385;-69
2022/07/08 11:05:27;;;;;;;;;;;25.80;99.90;;;;;;5071757;28;19971;-69
2022/07/08 11:08:12;;;;;;;;;;;25.40;99.90;;;;;;5061931;28;19924;-69
2022/07/08 11:10:38;;;;;;;;;;;25.30;99.90;;;;;;5053655;28;19916;-69
2022/07/08 11:13:04;;;;;;;;;;;25.20;99.90;;;;;;5054432;28;20430;-70
2022/07/08 11:15:31;;;;;;;;;;;25.30;99.90;;;;;;5053059;28;19913;-69
2022/07/08 11:17:56;;;;;;;;;;;25.70;99.90;;;;;;5047127;28;19916;-69
2022/07/08 11:20:21;;;;;;;;;;;25.90;99.90;;;;;;5034951;28;20768;-68
2022/07/08 11:22:47;;;;;;;;;;;25.70;99.90;;;;;;5058138;28;19928;-69
2022/07/08 11:25:14;;;;;;;;;;;25.40;99.90;;;;;;5052256;28;19917;-70
2022/07/08 11:27:39;;;;;;;;;;;25.00;99.90;;;;;;5055948;28;19920;-68
2022/07/08 11:30:09;;;;;;;;;;;24.80;99.90;;;;;;5056822;28;19920;-69
2022/07/08 11:32:35;;;;;;;;;;;24.70;99.90;;;;;;5056078;28;19920;-69
2022/07/08 11:35:00;;;;;;;;;;;24.60;99.90;;;;;;5065699;28;19913;-69
2022/07/08 11:37:26;;;;;;;;;;;24.60;99.90;;;;;;5052246;28;19920;-69
2022/07/08 11:39:52;;;;;;;;;;;24.60;99.90;;;;;;5072734;28;20276;-69
2022/07/08 11:42:18;;;;;;;;;;;24.50;99.90;;;;;;5072333;28;19923;-70
2022/07/08 11:44:44;;;;;;;;;;;24.40;99.90;;;;;;5046934;28;19912;-70
2022/07/08 11:47:12;;;;;;;;;;;24.60;99.90;;;;;;5037143;28;19927;-70
2022/07/08 11:49:42;;;;;;;;;;;24.50;99.90;;;;;;5059315;28;19913;-69
2022/07/08 11:52:08;;;;;;;;;;;24.30;99.90;;;;;;5060746;28;20353;-70
2022/07/08 11:54:33;;;;;;;;;;;24.20;99.90;;;;;;5063440;28;19913;-70
2022/07/08 11:56:59;;;;;;;;;;;24.10;99.90;;;;;;5058103;28;19921;-70
2022/07/08 11:59:29;;;;;;;;;;;24.10;99.90;;;;;;5037088;28;20309;-69
2022/07/08 12:01:56;;;;;;;;;;;23.90;99.90;;;;;;5061689;28;19937;-71
2022/07/08 12:04:22;;;;;;;;;;;23.80;99.90;;;;;;5065955;28;19919;-70
2022/07/08 12:06:50;;;;;;;;;;;23.70;99.90;;;;;;5060592;28;19935;-71
2022/07/08 12:09:16;;;;;;;;;;;23.60;99.90;;;;;;5065127;28;19920;-70
2022/07/08 12:11:43;;;;;;;;;;;23.50;99.90;;;;;;5059831;28;19921;-69
2022/07/08 12:14:08;;;;;;;;;;;23.50;99.90;;;;;;5052028;28;19924;-69
2022/07/08 12:16:35;;;;;;;;;;;23.40;99.90;;;;;;5056114;28;19947;-69
2022/07/08 12:19:01;;;;;;;;;;;23.40;99.90;;;;;;5051122;28;20313;-68
2022/07/08 12:21:27;;;;;;;;;;;23.40;99.90;;;;;;5064467;28;19916;-69
2022/07/08 12:24:00;;;;;;;;;;;23.40;99.90;;;;;;5051645;28;20292;-69
2022/07/08 12:26:26;;;;;;;;;;;23.40;99.90;;;;;;5056440;28;20011;-69
2022/07/08 12:28:51;;;;;;;;;;;23.50;99.90;;;;;;5057564;28;20228;-70
2022/07/08 12:31:35;;;;;;;;;;;23.60;99.90;;;;;;5068586;28;19960;-69
2022/07/08 12:34:01;;;;;;;;;;;23.50;99.90;;;;;;5056561;28;20300;-69
2022/07/08 12:36:27;;;;;;;;;;;23.50;99.90;;;;;;5050448;28;19982;-69
2022/07/08 12:38:54;;;;;;;;;;;23.60;99.90;;;;;;5052125;28;19968;-69
2022/07/08 12:41:23;;;;;;;;;;;23.60;99.90;;;;;;5060251;28;20024;-69
2022/07/08 12:43:48;;;;;;;;;;;23.60;99.90;;;;;;5051932;28;19924;-69
2022/07/08 12:46:14;;;;;;;;;;;23.50;99.90;;;;;;5049923;28;19924;-69
2022/07/08 12:48:39;;;;;;;;;;;23.50;99.90;;;;;;5051590;28;19970;-69
2022/07/08 12:51:07;;;;;;;;;;;23.50;99.90;;;;;;5053367;28;20004;-69
2022/07/08 12:53:32;;;;;;;;;;;23.50;99.90;;;;;;5052678;28;20407;-69
2022/07/08 12:55:58;;;;;;;;;;;23.60;99.90;;;;;;5054461;28;19913;-70
2022/07/08 12:58:24;;;;;;;;;;;23.70;99.90;;;;;;5055232;28;19950;-68
2022/07/08 13:00:53;;;;;;;;;;;23.70;99.90;;;;;;5064398;28;19913;-69
2022/07/08 13:03:19;;;;;;;;;;;23.60;99.90;;;;;;5065746;28;19939;-69
2022/07/08 13:05:44;;;;;;;;;;;23.50;99.90;;;;;;5049955;28;20372;-69
2022/07/08 13:08:10;;;;;;;;;;;23.50;99.90;;;;;;5049628;28;20377;-70
2022/07/08 13:10:35;;;;;;;;;;;23.50;99.90;;;;;;5068594;28;19950;-68
2022/07/08 13:13:06;;;;;;;;;;;23.50;99.90;;;;;;5064130;28;19921;-69
2022/07/08 13:15:35;;;;;;;;;;;23.40;99.90;;;;;;5058818;28;19920;-69
2022/07/08 13:18:00;;;;;;;;;;;23.40;99.90;;;;;;5058117;28;19917;-69
2022/07/08 13:20:26;;;;;;;;;;;23.40;99.90;;;;;;5048004;28;19912;-68
2022/07/08 13:22:51;;;;;;;;;;;23.40;99.90;;;;;;5071241;28;19912;-69
2022/07/08 13:25:17;;;;;;;;;;;23.30;99.90;;;;;;5069384;28;19919;-70
2022/07/08 13:27:44;;;;;;;;;;;23.10;99.90;;;;;;5054034;28;19921;-69
2022/07/08 13:30:13;;;;;;;;;;;23.00;99.90;;;;;;5050312;28;20400;-68
2022/07/08 13:32:39;;;;;;;;;;;23.00;99.90;;;;;;5050663;28;19921;-69
2022/07/08 13:35:04;;;;;;;;;;;23.00;99.90;;;;;;5053150;28;19923;-68
2022/07/08 13:37:30;;;;;;;;;;;23.00;99.90;;;;;;5059903;28;19916;-69
2022/07/08 13:39:55;;;;;;;;;;;23.10;99.90;;;;;;5070666;28;20011;-69
2022/07/08 13:42:21;;;;;;;;;;;23.10;99.90;;;;;;5070582;28;20402;-69
2022/07/08 13:44:46;;;;;;;;;;;23.20;99.90;;;;;;5054731;28;19917;-69
2022/07/08 13:47:12;;;;;;;;;;;23.40;99.90;;;;;;5069493;28;19916;-69
2022/07/08 13:49:37;;;;;;;;;;;23.40;99.90;;;;;;5069856;28;19909;-69
2022/07/08 13:52:03;;;;;;;;;;;23.40;99.90;;;;;;5069616;28;20288;-70
2022/07/08 13:54:28;;;;;;;;;;;23.50;99.90;;;;;;5068853;28;19908;-69
2022/07/08 13:56:54;;;;;;;;;;;23.50;99.90;;;;;;5070594;28;19916;-70
2022/07/08 13:59:19;;;;;;;;;;;23.40;99.90;;;;;;5070141;28;19970;-70
2022/07/08 14:01:45;;;;;;;;;;;23.40;99.90;;;;;;5074221;28;19917;-71
2022/07/08 14:04:11;;;;;;;;;;;23.30;99.90;;;;;;5057961;28;20106;-70
2022/07/08 14:06:36;;;;;;;;;;;23.30;99.90;;;;;;5053604;28;19958;-70
2022/07/08 14:09:02;;;;;;;;;;;23.40;99.90;;;;;;5054018;28;19959;-71
2022/07/08 14:11:27;;;;;;;;;;;23.40;99.90;;;;;;5052471;28;19946;-70
2022/07/08 14:13:54;;;;;;;;;;;23.40;99.90;;;;;;5052538;28;19912;-70